Time;durP1;ratioP1;P1;durP2;ratioP2;P2;SDS_P1;SDS_P2;PMS_P1;PMS_P2;Temp;Humidity;BMP_temperature;BMP_pressure;BME280_temperature;BME280_humidity;BME280_pressure;Samples;Min_cycle;Max_cycle;Signal;HPM_P1;HPM_P2
2023/08/15 00:02:12;;;;;;;9.32;3.25;;;24.80;86.20;;;;;;5051685;28;20068;-73
2023/08/15 00:04:38;;;;;;;7.70;3.42;;;25.20;86.40;;;;;;5049075;28;20445;-71
2023/08/15 00:07:04;;;;;;;8.02;3.63;;;24.60;89.60;;;;;;5052871;28;20120;-63
2023/08/15 00:09:31;;;;;;;9.32;3.53;;;25.10;86.10;;;;;;5049794;28;20112;-65
2023/08/15 00:11:57;;;;;;;7.93;3.08;;;25.10;86.60;;;;;;5010910;28;20046;-63
2023/08/15 00:14:22;;;;;;;9.02;3.30;;;24.90;86.00;;;;;;5013462;28;20076;-63
2023/08/15 00:16:48;;;;;;;5.90;3.63;;;24.90;86.20;;;;;;4998763;28;20484;-62
2023/08/15 00:19:14;;;;;;;7.20;3.13;;;24.80;86.20;;;;;;5031840;28;20456;-62
2023/08/15 00:21:39;;;;;;;6.57;3.10;;;24.90;86.30;;;;;;5026159;28;20621;-63
2023/08/15 00:24:05;;;;;;;6.10;3.08;;;24.80;86.20;;;;;;5032636;28;20053;-65
2023/08/15 00:26:31;;;;;;;7.03;3.00;;;24.90;86.20;;;;;;5030672;28;20487;-67
2023/08/15 00:28:58;;;;;;;7.63;3.28;;;25.10;86.40;;;;;;5032680;28;20394;-70
2023/08/15 00:31:24;;;;;;;7.75;3.63;;;24.80;86.30;;;;;;5027354;28;20041;-70
2023/08/15 00:33:50;;;;;;;7.40;3.42;;;25.10;89.50;;;;;;5028764;28;20132;-70
2023/08/15 00:36:15;;;;;;;6.63;3.30;;;24.90;86.30;;;;;;5025465;28;20144;-68
2023/08/15 00:38:41;;;;;;;8.50;3.72;;;24.80;86.30;;;;;;5030064;28;20049;-68
2023/08/15 00:41:07;;;;;;;7.47;3.20;;;24.80;86.30;;;;;;5026893;28;20108;-65
2023/08/15 00:43:33;;;;;;;8.45;3.83;;;24.80;86.40;;;;;;5024769;28;20056;-68
2023/08/15 00:45:59;;;;;;;5.63;3.10;;;24.80;86.40;;;;;;5029198;28;20129;-66
2023/08/15 00:48:29;;;;;;;5.65;3.17;;;25.00;86.50;;;;;;5013452;28;20052;-67
2023/08/15 00:50:55;;;;;;;7.45;3.08;;;24.90;86.50;;;;;;5028006;28;20054;-66
2023/08/15 00:53:21;;;;;;;7.80;3.15;;;25.00;86.50;;;;;;5015200;28;20041;-64
2023/08/15 00:55:47;;;;;;;7.78;2.90;;;24.80;86.30;;;;;;5020473;28;20051;-67
2023/08/15 00:58:13;;;;;;;6.30;3.45;;;24.80;86.30;;;;;;5013535;28;20045;-68
2023/08/15 01:00:41;;;;;;;5.82;3.30;;;24.70;86.30;;;;;;5026265;28;20049;-70
2023/08/15 01:03:07;;;;;;;6.05;3.35;;;24.90;86.60;;;;;;5045346;28;20042;-73
2023/08/15 01:05:33;;;;;;;5.78;3.00;;;25.00;86.60;;;;;;5022730;28;20097;-69
2023/08/15 01:07:59;;;;;;;5.80;2.70;;;24.90;86.40;;;;;;5011558;28;20042;-70
2023/08/15 01:10:25;;;;;;;7.68;3.15;;;24.80;86.30;;;;;;5028128;28;20074;-69
2023/08/15 01:13:01;;;;;;;5.18;3.10;;;25.20;86.40;;;;;;5022415;28;20052;-66
2023/08/15 01:15:28;;;;;;;6.35;3.00;;;24.90;85.20;;;;;;5056369;28;20056;-67
2023/08/15 01:18:14;;;;;;;6.28;3.10;;;25.00;86.70;;;;;;5087783;28;20045;-66
2023/08/15 01:20:40;;;;;;;6.00;2.90;;;25.10;85.50;;;;;;5017369;28;20054;-65
2023/08/15 01:23:07;;;;;;;5.53;3.00;;;25.10;86.50;;;;;;5035572;28;20068;-67
2023/08/15 01:25:40;;;;;;;6.28;2.97;;;24.90;86.60;;;;;;5025571;28;20389;-68
2023/08/15 01:28:06;;;;;;;;;;;24.60;86.10;;;;;;5033914;28;20381;-65
2023/08/15 01:30:32;;;;;;;6.40;3.00;;;24.70;86.90;;;;;;5035908;28;19928;-66
2023/08/15 01:33:09;;;;;;;5.78;2.83;;;24.80;86.30;;;;;;5063963;28;20040;-63
2023/08/15 01:35:38;;;;;;;6.20;3.00;;;25.00;86.90;;;;;;5026717;28;20052;-67
2023/08/15 01:38:10;;;;;;;6.00;3.28;;;24.80;86.70;;;;;;5052147;28;20045;-66
2023/08/15 01:40:36;;;;;;;7.88;3.30;;;25.30;87.00;;;;;;5037634;28;20049;-66
2023/08/15 01:43:02;;;;;;;5.45;3.00;;;24.80;86.30;;;;;;5048384;28;20128;-67
2023/08/15 01:45:28;;;;;;;5.60;3.05;;;25.00;86.40;;;;;;5044715;28;20071;-64
2023/08/15 01:47:53;;;;;;;7.25;3.58;;;24.80;86.40;;;;;;5034063;28;20053;-62
2023/08/15 01:50:19;;;;;;;4.75;2.97;;;25.10;86.60;;;;;;5035132;28;20111;-66
2023/08/15 01:52:45;;;;;;;6.32;2.83;;;24.70;86.40;;;;;;5042896;28;20042;-65
2023/08/15 01:55:11;;;;;;;5.85;2.92;;;25.00;86.50;;;;;;5061739;28;20041;-65
2023/08/15 01:57:36;;;;;;;6.43;3.38;;;25.00;86.50;;;;;;5053681;28;20047;-64
2023/08/15 02:00:03;;;;;;;6.03;3.00;;;25.00;86.60;;;;;;5051756;28;20060;-65
2023/08/15 02:02:29;;;;;;;7.45;2.80;;;24.90;86.50;;;;;;5042165;28;20082;-64
2023/08/15 02:04:55;;;;;;;6.07;2.90;;;24.70;86.50;;;;;;5051807;28;20048;-64
2023/08/15 02:07:21;;;;;;;6.20;2.97;;;25.00;86.80;;;;;;5053811;28;20452;-62
2023/08/15 02:09:47;;;;;;;6.68;3.20;;;24.80;86.50;;;;;;5040284;28;20040;-62
2023/08/15 02:12:15;;;;;;;6.50;3.25;;;24.80;86.50;;;;;;5071452;28;20383;-67
2023/08/15 02:14:41;;;;;;;5.82;2.90;;;24.60;86.40;;;;;;5043311;28;20490;-62
2023/08/15 02:17:06;;;;;;;4.88;2.95;;;25.10;86.60;;;;;;5037113;28;20053;-63
2023/08/15 02:19:32;;;;;;;6.43;3.10;;;24.70;86.30;;;;;;5032775;28;20041;-63
2023/08/15 02:21:58;;;;;;;5.95;3.08;;;25.00;86.50;;;;;;5045619;28;20085;-62
2023/08/15 02:24:24;;;;;;;6.50;3.22;;;24.90;86.40;;;;;;5050406;28;20475;-64
2023/08/15 02:26:49;;;;;;;7.13;3.15;;;24.80;86.60;;;;;;5054812;28;20167;-64
2023/08/15 02:29:15;;;;;;;5.13;2.95;;;24.60;86.30;;;;;;5017406;28;20072;-67
2023/08/15 02:31:46;;;;;;;6.75;3.33;;;25.00;86.50;;;;;;5029663;28;20163;-63
2023/08/15 02:34:12;;;;;;;6.75;3.13;;;24.60;86.70;;;;;;5035126;28;20439;-63
2023/08/15 02:36:37;;;;;;;7.43;3.65;;;24.70;86.40;;;;;;5054773;28;20049;-66
2023/08/15 02:39:03;;;;;;;6.82;3.30;;;25.00;86.60;;;;;;5050896;28;20041;-63
2023/08/15 02:41:29;;;;;;;5.97;3.40;;;25.10;89.70;;;;;;5032782;28;20120;-63
2023/08/15 02:43:55;;;;;;;6.85;3.38;;;24.70;86.40;;;;;;5038191;28;20045;-63
2023/08/15 02:46:20;;;;;;;7.97;3.47;;;24.60;86.30;;;;;;5027577;28;20056;-63
2023/08/15 02:48:46;;;;;;;5.95;3.50;;;24.80;86.40;;;;;;5044426;28;20046;-63
2023/08/15 02:51:12;;;;;;;6.38;3.40;;;24.70;86.40;;;;;;5034283;28;20049;-65
2023/08/15 02:53:37;;;;;;;6.20;3.42;;;24.80;86.50;;;;;;5048863;28;20052;-74
2023/08/15 02:56:03;;;;;;;5.75;3.20;;;24.90;86.50;;;;;;5033910;28;20044;-72
2023/08/15 02:58:29;;;;;;;5.90;2.97;;;24.60;86.20;;;;;;5049567;28;20046;-68
2023/08/15 03:00:55;;;;;;;6.28;3.00;;;24.80;86.40;;;;;;5053148;28;20041;-70
2023/08/15 03:03:20;;;;;;;5.55;2.97;;;24.80;86.50;;;;;;5052805;28;20029;-65
2023/08/15 03:05:46;;;;;;;6.70;3.38;;;24.70;86.40;;;;;;5062555;28;20061;-68
2023/08/15 03:08:12;;;;;;;6.18;3.10;;;24.80;86.50;;;;;;5045877;28;20041;-67
2023/08/15 03:10:39;;;;;;;5.72;3.60;;;24.80;86.40;;;;;;5039778;28;20454;-67
2023/08/15 03:13:05;;;;;;;5.75;3.65;;;24.60;86.40;;;;;;5038572;28;20049;-68
2023/08/15 03:15:31;;;;;;;6.18;3.30;;;24.90;86.30;;;;;;5064452;28;20067;-72
2023/08/15 03:17:57;;;;;;;6.82;3.55;;;24.60;86.40;;;;;;5052367;28;20041;-65
2023/08/15 03:20:23;;;;;;;7.50;3.53;;;24.70;86.50;;;;;;5024092;28;20128;-66
2023/08/15 03:22:49;;;;;;;8.80;3.72;;;24.90;86.50;;;;;;5018746;28;20121;-65
2023/08/15 03:25:15;;;;;;;7.70;3.70;;;24.60;86.40;;;;;;5040997;28;20041;-69
2023/08/15 03:27:40;;;;;;;5.57;3.20;;;24.90;86.50;;;;;;5060211;28;20053;-66
2023/08/15 03:30:07;;;;;;;7.53;3.45;;;24.90;86.60;;;;;;5046871;28;20049;-71
2023/08/15 03:32:32;;;;;;;6.22;3.35;;;24.70;86.20;;;;;;5046751;28;20094;-71
2023/08/15 03:34:58;;;;;;;6.00;3.33;;;24.60;86.40;;;;;;5024796;28;20438;-67
2023/08/15 03:37:24;;;;;;;5.95;3.40;;;24.60;86.50;;;;;;5028868;28;20483;-69
2023/08/15 03:39:49;;;;;;;6.80;3.83;;;24.80;86.60;;;;;;5054347;28;20045;-69
2023/08/15 03:42:15;;;;;;;6.43;3.78;;;24.50;86.40;;;;;;5084886;28;20040;-66
2023/08/15 03:44:41;;;;;;;7.40;3.45;;;24.60;86.50;;;;;;5042789;28;20041;-66
2023/08/15 03:47:06;;;;;;;6.70;3.33;;;24.50;86.40;;;;;;5042708;28;20698;-72
2023/08/15 03:49:32;;;;;;;6.88;3.35;;;24.50;86.50;;;;;;5049699;28;20049;-68
2023/08/15 03:51:58;;;;;;;5.47;3.20;;;24.50;86.50;;;;;;5037316;28;20103;-71
2023/08/15 03:54:24;;;;;;;5.80;3.58;;;24.40;86.50;;;;;;5029824;28;20044;-67
2023/08/15 03:56:49;;;;;;;7.05;3.38;;;24.70;86.70;;;;;;5062358;28;20072;-64
2023/08/15 03:59:15;;;;;;;6.43;3.70;;;24.70;86.70;;;;;;5030028;28;20084;-65
2023/08/15 04:01:41;;;;;;;6.85;3.83;;;24.70;86.60;;;;;;5048392;28;20123;-74
2023/08/15 04:04:07;;;;;;;5.45;3.20;;;24.80;86.70;;;;;;5027945;28;20443;-72
2023/08/15 04:06:32;;;;;;;6.78;4.00;;;24.60;86.60;;;;;;5026758;28;20127;-70
2023/08/15 04:08:58;;;;;;;6.50;3.70;;;24.70;86.70;;;;;;5058638;28;20076;-67
2023/08/15 04:11:24;;;;;;;5.65;3.78;;;24.60;86.60;;;;;;5053303;28;20048;-70
2023/08/15 04:13:50;;;;;;;5.13;3.50;;;24.60;89.40;;;;;;5073968;28;20056;-68
2023/08/15 04:16:15;;;;;;;8.45;3.80;;;24.70;86.50;;;;;;5060696;28;20095;-74
2023/08/15 04:18:41;;;;;;;7.18;3.28;;;24.40;86.50;;;;;;5051602;28;20045;-62
2023/08/15 04:21:07;;;;;;;8.20;4.05;;;24.60;86.70;;;;;;5043317;28;20045;-69
2023/08/15 04:23:33;;;;;;;7.80;4.00;;;24.70;87.00;;;;;;5051261;28;20045;-67
2023/08/15 04:25:58;;;;;;;6.68;3.92;;;24.90;86.90;;;;;;5050889;28;20079;-69
2023/08/15 04:28:24;;;;;;;6.15;4.07;;;24.80;86.80;;;;;;5029884;28;20088;-69
2023/08/15 04:30:50;;;;;;;6.95;3.75;;;24.70;86.90;;;;;;5030892;28;20068;-67
2023/08/15 04:33:16;;;;;;;5.78;3.53;;;24.50;86.80;;;;;;5030662;28;20087;-66
2023/08/15 04:35:42;;;;;;;5.75;3.97;;;24.70;87.10;;;;;;5046616;28;20059;-70
2023/08/15 04:38:07;;;;;;;6.28;3.90;;;24.90;87.00;;;;;;5035966;28;20487;-65
2023/08/15 04:40:40;;;;;;;6.47;3.80;;;24.70;86.90;;;;;;5064974;28;20044;-67
2023/08/15 04:43:06;;;;;;;6.13;3.95;;;24.60;85.70;;;;;;5010831;28;20191;-70
2023/08/15 04:45:33;;;;;;;7.93;4.35;;;24.70;87.20;;;;;;5067298;28;20123;-67
2023/08/15 04:47:58;;;;;;;5.47;3.85;;;24.50;87.00;;;;;;5018877;28;20091;-68
2023/08/15 04:50:24;;;;;;;6.47;3.55;;;24.70;87.10;;;;;;5031771;28;20085;-66
2023/08/15 04:52:50;;;;;;;6.15;3.85;;;24.80;87.10;;;;;;5033775;28;20037;-70
2023/08/15 04:55:16;;;;;;;6.20;4.00;;;24.80;87.10;;;;;;5051627;28;20052;-66
2023/08/15 04:57:42;;;;;;;7.05;4.20;;;24.60;86.90;;;;;;5055115;28;20394;-65
2023/08/15 05:00:08;;;;;;;6.53;3.67;;;24.50;87.00;;;;;;5058383;28;20037;-62
2023/08/15 05:02:38;;;;;;;6.68;3.67;;;24.70;86.80;;;;;;5060894;28;20056;-63
2023/08/15 05:05:10;;;;;;;5.65;3.40;;;24.60;87.40;;;;;;5056070;28;20091;-71
2023/08/15 05:07:37;;;;;;;5.75;3.90;;;24.80;86.90;;;;;;5021958;28;20136;-70
2023/08/15 05:10:03;;;;;;;6.38;3.92;;;24.70;87.70;;;;;;5035517;28;20518;-69
2023/08/15 05:12:28;;;;;;;6.13;3.55;;;24.70;87.00;;;;;;5037032;28;20049;-68
2023/08/15 05:14:54;;;;;;;6.32;3.53;;;24.90;87.20;;;;;;5049817;28;20130;-69
2023/08/15 05:17:20;;;;;;;5.88;3.75;;;25.00;87.40;;;;;;5030407;28;20051;-66
2023/08/15 05:19:46;;;;;;;6.53;3.80;;;24.70;87.20;;;;;;5055835;28;20077;-64
2023/08/15 05:22:11;;;;;;;6.15;3.67;;;24.70;87.20;;;;;;5061747;28;20049;-65
2023/08/15 05:24:37;;;;;;;6.60;3.60;;;24.60;87.30;;;;;;5056955;28;20475;-72
2023/08/15 05:27:03;;;;;;;7.03;3.95;;;24.80;87.40;;;;;;5047064;28;20086;-64
2023/08/15 05:29:29;;;;;;;7.28;4.05;;;25.00;87.50;;;;;;5066487;28;20073;-67
2023/08/15 05:31:54;;;;;;;6.90;4.00;;;25.10;87.50;;;;;;5046043;28;20040;-65
2023/08/15 05:34:20;;;;;;;8.10;3.70;;;24.80;86.90;;;;;;5047751;28;20372;-70
2023/08/15 05:36:46;;;;;;;8.63;4.43;;;24.80;87.40;;;;;;5061996;28;20103;-67
2023/08/15 05:39:12;;;;;;;7.13;4.10;;;24.60;87.30;;;;;;5064884;28;20124;-64
2023/08/15 05:41:37;;;;;;;6.32;4.47;;;24.70;87.50;;;;;;5065502;28;20646;-64
2023/08/15 05:44:03;;;;;;;5.78;4.10;;;24.70;87.60;;;;;;5062763;28;20037;-64
2023/08/15 05:46:29;;;;;;;7.88;4.40;;;24.60;87.20;;;;;;5051645;28;20045;-64
2023/08/15 05:48:55;;;;;;;6.43;4.35;;;24.80;87.60;;;;;;5057454;28;20040;-70
2023/08/15 05:51:21;;;;;;;9.75;4.68;;;24.80;87.70;;;;;;5055996;28;20041;-63
2023/08/15 05:53:46;;;;;;;6.72;4.15;;;24.80;87.70;;;;;;5045309;28;20720;-64
2023/08/15 05:56:12;;;;;;;8.20;4.57;;;24.70;90.50;;;;;;5052626;28;20047;-62
2023/08/15 05:58:38;;;;;;;6.53;4.00;;;24.60;87.70;;;;;;5057363;28;20495;-69
2023/08/15 06:01:04;;;;;;;7.88;4.10;;;24.60;87.80;;;;;;5058498;28;20071;-64
2023/08/15 06:03:30;;;;;;;7.10;4.13;;;24.90;88.00;;;;;;5038657;28;20048;-73
2023/08/15 06:05:58;;;;;;;8.18;4.22;;;24.90;87.80;;;;;;5035273;28;20043;-72
2023/08/15 06:08:24;;;;;;;8.05;4.10;;;25.00;88.20;;;;;;5037813;28;20055;-70
2023/08/15 06:10:51;;;;;;;6.47;3.90;;;24.60;87.40;;;;;;5019611;28;20053;-66
2023/08/15 06:13:17;;;;;;;6.78;3.83;;;25.00;87.80;;;;;;5058741;28;20057;-62
2023/08/15 06:15:43;;;;;;;8.02;3.90;;;24.90;87.90;;;;;;5025783;28;20083;-66
2023/08/15 06:18:08;;;;;;;6.20;3.83;;;24.90;88.10;;;;;;5062978;28;20529;-62
2023/08/15 06:20:34;;;;;;;6.13;3.78;;;24.70;87.80;;;;;;5063109;28;20048;-67
2023/08/15 06:23:00;;;;;;;6.57;3.70;;;24.90;87.70;;;;;;5046273;28;20051;-72
2023/08/15 06:25:27;;;;;;;6.68;3.95;;;25.10;88.00;;;;;;5044229;28;20050;-65
2023/08/15 06:27:53;;;;;;;9.68;6.53;;;25.00;87.80;;;;;;5053345;28;20052;-61
2023/08/15 06:30:18;;;;;;;11.50;6.75;;;25.20;88.00;;;;;;5048977;28;20123;-63
2023/08/15 06:32:45;;;;;;;11.38;6.85;;;24.90;88.10;;;;;;5046963;28;20125;-62
2023/08/15 06:35:11;;;;;;;11.35;6.63;;;24.80;88.30;;;;;;5068992;28;20467;-62
2023/08/15 06:37:37;;;;;;;10.13;5.55;;;24.80;88.50;;;;;;5070532;28;20064;-62
2023/08/15 06:40:03;;;;;;;9.93;5.90;;;24.80;88.50;;;;;;5063812;28;20041;-68
2023/08/15 06:42:29;;;;;;;8.32;6.07;;;24.60;88.60;;;;;;5061081;28;20041;-63
2023/08/15 06:45:23;;;;;;;9.90;6.03;;;24.80;88.40;;;;;;5062905;28;20091;-61
2023/08/15 06:47:49;;;;;;;11.43;6.03;;;24.70;89.60;;;;;;5061056;28;20044;-65
2023/08/15 06:50:15;;;;;;;13.07;6.32;;;24.60;91.00;;;;;;5059519;28;20052;-61
2023/08/15 06:52:41;;;;;;;12.05;7.18;;;24.70;88.90;;;;;;5066311;28;20087;-63
2023/08/15 06:55:08;;;;;;;16.45;7.90;;;24.80;89.30;;;;;;5060418;28;20042;-62
2023/08/15 06:57:33;;;;;;;10.88;6.57;;;24.70;89.10;;;;;;5065679;28;20116;-61
2023/08/15 07:00:00;;;;;;;13.15;6.95;;;24.50;89.50;;;;;;5059126;28;20123;-70
2023/08/15 07:02:25;;;;;;;11.98;6.00;;;25.10;90.00;;;;;;5063474;28;20037;-66
2023/08/15 07:04:51;;;;;;;10.98;6.85;;;24.70;90.00;;;;;;5057379;28;20032;-68
2023/08/15 07:07:17;;;;;;;11.60;6.82;;;24.80;90.00;;;;;;5057237;28;20084;-61
2023/08/15 07:09:44;;;;;;;11.70;5.90;;;24.80;90.10;;;;;;5036008;28;20041;-76
2023/08/15 07:12:09;;;;;;;12.82;6.30;;;24.80;90.10;;;;;;5036521;28;20511;-69
2023/08/15 07:14:35;;;;;;;10.50;6.28;;;24.80;90.00;;;;;;5054594;28;20060;-74
2023/08/15 07:17:01;;;;;;;8.80;5.95;;;24.80;90.10;;;;;;5070204;28;20039;-74
2023/08/15 07:19:27;;;;;;;9.13;6.18;;;24.70;90.10;;;;;;5049274;28;20530;-66
2023/08/15 07:21:53;;;;;;;12.48;6.15;;;24.80;90.40;;;;;;5031736;28;20041;-73
2023/08/15 07:24:19;;;;;;;13.27;5.70;;;24.90;90.10;;;;;;5052315;28;20130;-64
2023/08/15 07:26:45;;;;;;;11.45;6.07;;;25.10;90.20;;;;;;5034306;28;20037;-73
2023/08/15 07:29:14;;;;;;;10.60;5.72;;;24.90;90.10;;;;;;5036350;28;20053;-74
2023/08/15 07:31:40;;;;;;;10.30;5.40;;;25.10;90.20;;;;;;5057426;28;20041;-64
2023/08/15 07:34:06;;;;;;;10.68;5.32;;;25.30;90.20;;;;;;5035816;28;20115;-62
2023/08/15 07:36:32;;;;;;;10.15;5.55;;;25.40;90.30;;;;;;5068739;28;20502;-63
2023/08/15 07:38:58;;;;;;;10.18;5.10;;;25.40;90.10;;;;;;5062914;28;20137;-62
2023/08/15 07:41:24;;;;;;;10.73;4.13;;;25.20;90.00;;;;;;5052522;28;20140;-62
2023/08/15 07:43:49;;;;;;;15.80;6.90;;;25.30;89.90;;;;;;5056020;28;20036;-64
2023/08/15 07:46:15;;;;;;;12.25;6.13;;;25.70;90.00;;;;;;5035386;28;20045;-70
2023/08/15 07:48:42;;;;;;;14.85;7.25;;;25.70;91.30;;;;;;5053722;28;20064;-63
2023/08/15 07:51:08;;;;;;;17.80;8.05;;;25.70;89.60;;;;;;5057548;28;20498;-75
2023/08/15 07:53:34;;;;;;;11.63;6.45;;;25.90;89.50;;;;;;5055510;28;20083;-62
2023/08/15 07:56:00;;;;;;;11.70;6.07;;;25.80;89.20;;;;;;5054447;28;20067;-74
2023/08/15 07:58:25;;;;;;;13.20;5.95;;;26.10;89.20;;;;;;5046604;28;20048;-61
2023/08/15 08:00:51;;;;;;;13.40;6.90;;;26.00;89.30;;;;;;5046540;28;20126;-75
2023/08/15 08:03:17;;;;;;;13.50;7.20;;;26.10;88.40;;;;;;5047395;28;20037;-72
2023/08/15 08:05:43;;;;;;;13.45;7.18;;;25.90;87.90;;;;;;5044976;28;20052;-70
2023/08/15 08:08:09;;;;;;;12.05;6.75;;;26.30;88.00;;;;;;5040332;28;20049;-69
2023/08/15 08:10:34;;;;;;;13.68;6.20;;;26.20;87.70;;;;;;5051957;28;20114;-73
2023/08/15 08:13:01;;;;;;;12.00;6.10;;;26.40;87.40;;;;;;5051182;28;20060;-62
2023/08/15 08:15:30;;;;;;;9.75;5.85;;;26.70;87.00;;;;;;5070433;28;20072;-73
2023/08/15 08:17:55;;;;;;;10.50;5.32;;;26.30;87.20;;;;;;5048794;28;20068;-74
2023/08/15 08:20:21;;;;;;;12.00;6.18;;;26.60;87.20;;;;;;5052638;28;20072;-71
2023/08/15 08:22:47;;;;;;;9.73;6.00;;;26.70;86.90;;;;;;5067611;28;20476;-76
2023/08/15 08:25:19;;;;;;;10.23;6.38;;;26.60;86.70;;;;;;5062825;28;20045;-62
2023/08/15 08:27:45;;;;;;;;;;;27.00;87.20;;;;;;5014933;28;20499;-64
2023/08/15 08:30:12;;;;;;;13.50;6.82;;;27.00;86.70;;;;;;5043307;28;19928;-62
2023/08/15 08:32:38;;;;;;;14.38;6.10;;;26.80;86.60;;;;;;5056079;28;20053;-62
2023/08/15 08:35:05;;;;;;;16.30;6.32;;;26.90;86.50;;;;;;5028885;28;20194;-62
2023/08/15 08:37:32;;;;;;;12.25;5.68;;;26.80;85.80;;;;;;5035572;28;20101;-62
2023/08/15 08:39:58;;;;;;;11.73;5.50;;;26.90;86.30;;;;;;5039128;28;20406;-63
2023/08/15 08:42:23;;;;;;;16.05;7.95;;;26.70;85.90;;;;;;5016653;28;20037;-68
2023/08/15 08:44:50;;;;;;;13.15;6.15;;;26.80;85.70;;;;;;5015292;28;20038;-62
2023/08/15 08:47:18;;;;;;;14.02;6.38;;;26.70;85.70;;;;;;5035903;28;20057;-64
2023/08/15 08:49:43;;;;;;;10.13;5.88;;;27.00;86.40;;;;;;5029443;28;20049;-64
2023/08/15 08:52:09;;;;;;;10.40;5.45;;;26.60;85.70;;;;;;5051188;28;20094;-63
2023/08/15 08:54:35;;;;;;;8.88;4.95;;;26.50;85.70;;;;;;5029155;28;20048;-65
2023/08/15 08:57:04;;;;;;;9.43;5.07;;;26.30;85.70;;;;;;5030940;28;20044;-67
2023/08/15 08:59:29;;;;;;;10.60;5.15;;;26.50;86.60;;;;;;5044749;28;20053;-76
2023/08/15 09:01:55;;;;;;;9.75;4.10;;;26.50;86.00;;;;;;5047498;28;20040;-62
2023/08/15 09:04:21;;;;;;;10.60;4.20;;;26.40;86.10;;;;;;5032029;28;20124;-78
2023/08/15 09:06:47;;;;;;;11.23;4.30;;;26.40;86.50;;;;;;5013169;28;20048;-64
2023/08/15 09:09:13;;;;;;;9.98;3.95;;;26.60;86.50;;;;;;5046761;28;20052;-67
2023/08/15 09:11:39;;;;;;;8.65;3.55;;;26.20;86.70;;;;;;5045961;28;20179;-80
2023/08/15 09:14:05;;;;;;;7.95;3.50;;;26.30;86.00;;;;;;5043355;28;20052;-73
2023/08/15 09:16:32;;;;;;;9.40;3.58;;;26.20;86.30;;;;;;5046301;28;20516;-66
2023/08/15 09:19:04;;;;;;;7.82;3.22;;;26.60;86.30;;;;;;5026205;28;20088;-69
2023/08/15 09:21:30;;;;;;;6.63;2.90;;;26.60;86.40;;;;;;5041787;28;20048;-75
2023/08/15 09:24:00;;;;;;;7.28;3.00;;;26.40;86.20;;;;;;5044872;28;20047;-71
2023/08/15 09:26:26;;;;;;;7.25;2.90;;;23.80;84.70;;;;;;5033368;28;20083;-61
2023/08/15 09:28:52;;;;;;;5.57;2.40;;;26.20;85.50;;;;;;5030272;28;20088;-60
2023/08/15 09:31:18;;;;;;;8.90;3.22;;;26.70;85.50;;;;;;5052855;28;20041;-72
2023/08/15 09:33:44;;;;;;;8.57;2.40;;;26.70;85.40;;;;;;5046717;28;20052;-67
2023/08/15 09:36:10;;;;;;;7.53;2.65;;;26.60;84.80;;;;;;5048738;28;20406;-64
2023/08/15 09:38:36;;;;;;;5.78;2.30;;;26.50;85.10;;;;;;5052189;28;20048;-69
2023/08/15 09:41:02;;;;;;;9.45;2.63;;;26.90;84.70;;;;;;5032192;28;20088;-64
2023/08/15 09:43:32;;;;;;;7.88;2.60;;;26.80;84.50;;;;;;5032253;28;20407;-66
2023/08/15 09:46:01;;;;;;;7.60;2.30;;;26.40;84.40;;;;;;5054111;28;20044;-65
2023/08/15 09:48:29;;;;;;;6.70;2.40;;;26.80;84.80;;;;;;5057435;28;20391;-67
2023/08/15 09:50:56;;;;;;;7.18;2.72;;;26.80;83.80;;;;;;5058741;28;20040;-77
2023/08/15 09:53:25;;;;;;;6.05;3.35;;;26.50;84.30;;;;;;5032174;28;20083;-69
2023/08/15 09:55:51;;;;;;;9.65;4.47;;;26.80;85.00;;;;;;5040649;28;20076;-62
2023/08/15 09:58:17;;;;;;;9.77;4.75;;;26.90;84.80;;;;;;5039989;28;20040;-68
2023/08/15 10:00:43;;;;;;;11.40;5.30;;;26.60;84.50;;;;;;5023136;28;20040;-65
2023/08/15 10:03:14;;;;;;;9.20;4.68;;;26.60;84.40;;;;;;5033616;28;20041;-77
2023/08/15 10:05:41;;;;;;;10.60;5.57;;;26.70;84.60;;;;;;5038720;28;20085;-76
2023/08/15 10:08:07;;;;;;;10.73;5.57;;;26.40;84.50;;;;;;5040343;28;20077;-62
2023/08/15 10:10:33;;;;;;;11.93;6.80;;;26.40;84.40;;;;;;5044300;28;20438;-61
2023/08/15 10:12:59;;;;;;;11.90;7.07;;;26.40;83.80;;;;;;5042884;28;20052;-80
2023/08/15 10:15:26;;;;;;;9.98;6.53;;;26.40;84.00;;;;;;5041837;28;20059;-61
2023/08/15 10:17:52;;;;;;;11.05;6.88;;;26.30;84.40;;;;;;5003464;28;20067;-75
2023/08/15 10:20:18;;;;;;;10.05;5.80;;;26.30;84.40;;;;;;5025690;28;20045;-76
2023/08/15 10:22:44;;;;;;;12.60;6.10;;;26.20;84.40;;;;;;5020588;28;20503;-73
2023/08/15 10:25:22;;;;;;;7.50;5.10;;;26.30;84.30;;;;;;5055677;28;20087;-70
2023/08/15 10:27:49;;;;;;;11.85;4.00;;;26.60;85.10;;;;;;5037931;28;20437;-61
2023/08/15 10:30:33;;;;;;;9.65;4.82;;;26.30;84.50;;;;;;5028552;28;20525;-71
2023/08/15 10:33:01;;;;;;;9.98;4.72;;;26.10;84.60;;;;;;5036997;28;20453;-69
2023/08/15 10:35:27;;;;;;;12.32;4.10;;;26.30;84.80;;;;;;5037252;28;20045;-62
2023/08/15 10:37:55;;;;;;;7.85;3.90;;;26.20;84.40;;;;;;5041873;28;20509;-75
2023/08/15 10:40:21;;;;;;;10.57;4.22;;;26.60;85.00;;;;;;5037396;28;20042;-72
2023/08/15 10:43:05;;;;;;;7.72;3.70;;;26.00;84.10;;;;;;5018263;28;20053;-67
2023/08/15 10:45:32;;;;;;;7.35;3.40;;;26.40;84.00;;;;;;5014278;28;20499;-66
2023/08/15 10:47:59;;;;;;;7.80;3.10;;;26.40;84.70;;;;;;5017716;28;20049;-75
2023/08/15 10:50:24;;;;;;;5.22;2.40;;;26.40;84.50;;;;;;5035272;28;20611;-63
2023/08/15 10:53:04;;;;;;;5.85;2.78;;;26.40;84.20;;;;;;5025962;28;20095;-71
2023/08/15 10:55:35;;;;;;;8.15;2.88;;;26.20;84.20;;;;;;5020457;28;20061;-63
2023/08/15 10:58:07;;;;;;;6.15;2.85;;;26.60;83.00;;;;;;5040898;28;20052;-71
2023/08/15 11:00:33;;;;;;;7.18;2.80;;;26.00;83.90;;;;;;4986303;28;20056;-65
2023/08/15 11:03:00;;;;;;;6.03;2.72;;;26.40;84.20;;;;;;5004806;28;20041;-75
2023/08/15 11:05:25;;;;;;;4.75;1.90;;;26.20;84.20;;;;;;5006261;28;20455;-76
2023/08/15 11:07:51;;;;;;;5.30;2.25;;;26.30;83.80;;;;;;5017901;28;20041;-77
2023/08/15 11:10:17;;;;;;;5.53;2.35;;;26.50;83.70;;;;;;5023416;28;20056;-80
2023/08/15 11:12:50;;;;;;;7.65;2.38;;;26.50;83.30;;;;;;5015855;28;20514;-69
2023/08/15 11:15:16;;;;;;;6.32;2.38;;;26.50;83.10;;;;;;5050344;28;20547;-75
2023/08/15 11:17:45;;;;;;;6.47;2.50;;;26.50;82.90;;;;;;5053578;28;20048;-80
2023/08/15 11:20:11;;;;;;;6.20;2.05;;;26.30;83.10;;;;;;5056633;28;20041;-77
2023/08/15 11:22:37;;;;;;;6.32;2.17;;;26.40;82.90;;;;;;5050997;28;20057;-76
2023/08/15 11:25:07;;;;;;;4.97;2.22;;;26.60;83.20;;;;;;5034914;28;20041;-72
2023/08/15 11:27:39;;;;;;;7.50;2.63;;;26.50;83.00;;;;;;5047981;28;20080;-80
2023/08/15 11:30:05;;;;;;;8.13;2.63;;;26.60;83.50;;;;;;5051607;28;20053;-61
2023/08/15 11:32:31;;;;;;;6.30;2.75;;;26.80;82.60;;;;;;5034083;28;20164;-68
2023/08/15 11:34:58;;;;;;;10.65;2.90;;;26.90;83.10;;;;;;5032724;28;20171;-75
2023/08/15 11:37:24;;;;;;;9.05;2.47;;;26.90;82.80;;;;;;5027662;28;20037;-77
2023/08/15 11:39:53;;;;;;;9.38;3.10;;;26.90;82.40;;;;;;5036767;28;20056;-63
2023/08/15 11:42:20;;;;;;;12.73;3.03;;;26.60;81.10;;;;;;5024578;28;20036;-77
2023/08/15 11:44:46;;;;;;;9.73;2.88;;;26.70;82.50;;;;;;5049809;28;20490;-75
2023/08/15 11:47:15;;;;;;;7.47;2.58;;;26.60;82.60;;;;;;5052647;28;20045;-74
2023/08/15 11:49:40;;;;;;;7.50;2.50;;;26.70;82.50;;;;;;5044647;28;20498;-73
2023/08/15 11:52:08;;;;;;;6.57;2.63;;;26.60;82.60;;;;;;5018384;28;20122;-77
2023/08/15 11:54:34;;;;;;;8.05;2.80;;;26.90;82.00;;;;;;5040890;28;20043;-71
2023/08/15 11:57:00;;;;;;;6.43;3.05;;;26.80;82.80;;;;;;5046891;28;20435;-76
2023/08/15 11:59:26;;;;;;;5.75;2.70;;;26.80;82.70;;;;;;5037248;28;20364;-73
2023/08/15 12:01:51;;;;;;;7.47;2.35;;;26.60;82.70;;;;;;5057055;28;20398;-68
2023/08/15 12:04:18;;;;;;;7.53;2.70;;;26.80;82.70;;;;;;5045177;28;20120;-73
2023/08/15 12:06:44;;;;;;;5.72;2.65;;;26.90;82.90;;;;;;5030092;28;20490;-76
2023/08/15 12:09:11;;;;;;;5.88;2.40;;;27.00;83.00;;;;;;5036178;28;20045;-73
2023/08/15 12:11:37;;;;;;;7.03;1.92;;;27.00;83.00;;;;;;5047636;28;20080;-67
2023/08/15 12:14:03;;;;;;;6.93;2.50;;;26.60;82.50;;;;;;5030464;28;20095;-71
2023/08/15 12:16:30;;;;;;;5.95;2.50;;;26.90;83.00;;;;;;5033017;28;20542;-69
2023/08/15 12:18:56;;;;;;;4.82;2.17;;;27.10;83.10;;;;;;5058899;28;20044;-69
2023/08/15 12:21:22;;;;;;;4.53;2.15;;;27.00;83.10;;;;;;5045569;28;20512;-71
2023/08/15 12:23:48;;;;;;;6.10;2.30;;;27.00;83.00;;;;;;5049313;28;20040;-72
2023/08/15 12:26:14;;;;;;;5.40;2.10;;;26.90;82.90;;;;;;5028421;28;20132;-73
2023/08/15 12:28:40;;;;;;;6.82;2.25;;;26.70;82.70;;;;;;5032389;28;20091;-69
2023/08/15 12:31:05;;;;;;;5.80;2.30;;;26.80;82.90;;;;;;5045299;28;20096;-71
2023/08/15 12:33:33;;;;;;;7.60;2.47;;;27.00;83.00;;;;;;5032045;28;20084;-69
2023/08/15 12:36:00;;;;;;;6.13;2.47;;;26.80;83.00;;;;;;5048111;28;20052;-72
2023/08/15 12:38:25;;;;;;;5.45;2.10;;;27.00;83.20;;;;;;5049790;28;20055;-76
2023/08/15 12:40:51;;;;;;;5.53;2.30;;;27.10;83.00;;;;;;5049912;28;20131;-65
2023/08/15 12:43:17;;;;;;;5.10;2.10;;;27.10;83.20;;;;;;5030133;28;20045;-68